sensor_id;sensor_type;location;lat;lon;timestamp;P1;durP1;ratioP1;P2;durP2;ratioP2
52708;SDS011;38606;52.986;6.980;2022-07-23T00:00:52;6.38;;;3.22;;
52708;SDS011;38606;52.986;6.980;2022-07-23T00:03:18;4.88;;;3.08;;
52708;SDS011;38606;52.986;6.980;2022-07-23T00:05:44;6.63;;;2.80;;
52708;SDS011;38606;52.986;6.980;2022-07-23T00:08:10;4.18;;;2.90;;
52708;SDS011;38606;52.986;6.980;2022-07-23T00:10:35;5.05;;;2.58;;
52708;SDS011;38606;52.986;6.980;2022-07-23T00:13:01;6.05;;;2.92;;
52708;SDS011;38606;52.986;6.980;2022-07-23T00:15:27;4.45;;;3.33;;
52708;SDS011;38606;52.986;6.980;2022-07-23T00:17:53;4.75;;;3.28;;
52708;SDS011;38606;52.986;6.980;2022-07-23T00:20:18;4.88;;;2.95;;
52708;SDS011;38606;52.986;6.980;2022-07-23T00:25:18;5.18;;;3.03;;
52708;SDS011;38606;52.986;6.980;2022-07-23T00:27:44;9.38;;;3.17;;
52708;SDS011;38606;52.986;6.980;2022-07-23T00:30:10;12.07;;;4.30;;
52708;SDS011;38606;52.986;6.980;2022-07-23T00:32:46;7.40;;;3.35;;
52708;SDS011;38606;52.986;6.980;2022-07-23T00:35:18;7.15;;;3.50;;
52708;SDS011;38606;52.986;6.980;2022-07-23T00:37:45;7.15;;;3.50;;
52708;SDS011;38606;52.986;6.980;2022-07-23T00:40:11;6.32;;;3.47;;
52708;SDS011;38606;52.986;6.980;2022-07-23T00:42:37;8.45;;;3.10;;
52708;SDS011;38606;52.986;6.980;2022-07-23T00:45:03;6.00;;;3.15;;
52708;SDS011;38606;52.986;6.980;2022-07-23T00:47:29;9.35;;;3.40;;
52708;SDS011;38606;52.986;6.980;2022-07-23T00:49:55;10.23;;;3.50;;
52708;SDS011;38606;52.986;6.980;2022-07-23T00:52:21;3.78;;;3.00;;
52708;SDS011;38606;52.986;6.980;2022-07-23T00:54:46;5.80;;;3.20;;
52708;SDS011;38606;52.986;6.980;2022-07-23T00:57:13;7.25;;;3.00;;
52708;SDS011;38606;52.986;6.980;2022-07-23T00:59:39;7.97;;;3.50;;
52708;SDS011;38606;52.986;6.980;2022-07-23T01:02:05;5.00;;;3.15;;
52708;SDS011;38606;52.986;6.980;2022-07-23T01:04:31;7.50;;;3.10;;
52708;SDS011;38606;52.986;6.980;2022-07-23T01:06:57;5.57;;;3.00;;
52708;SDS011;38606;52.986;6.980;2022-07-23T01:09:22;4.63;;;2.88;;
52708;SDS011;38606;52.986;6.980;2022-07-23T01:11:48;6.47;;;3.03;;
52708;SDS011;38606;52.986;6.980;2022-07-23T01:14:17;6.75;;;3.03;;
52708;SDS011;38606;52.986;6.980;2022-07-23T01:16:44;7.85;;;2.65;;
52708;SDS011;38606;52.986;6.980;2022-07-23T01:19:12;7.13;;;3.15;;
52708;SDS011;38606;52.986;6.980;2022-07-23T01:21:39;5.35;;;3.03;;
52708;SDS011;38606;52.986;6.980;2022-07-23T01:24:07;5.63;;;3.00;;
52708;SDS011;38606;52.986;6.980;2022-07-23T01:26:37;5.50;;;3.60;;
52708;SDS011;38606;52.986;6.980;2022-07-23T01:29:04;5.75;;;2.80;;
52708;SDS011;38606;52.986;6.980;2022-07-23T01:31:30;5.55;;;2.63;;
52708;SDS011;38606;52.986;6.980;2022-07-23T01:33:56;7.85;;;3.45;;
52708;SDS011;38606;52.986;6.980;2022-07-23T01:36:22;4.45;;;2.60;;
52708;SDS011;38606;52.986;6.980;2022-07-23T01:38:49;4.03;;;2.55;;
52708;SDS011;38606;52.986;6.980;2022-07-23T01:41:14;5.68;;;2.35;;
52708;SDS011;38606;52.986;6.980;2022-07-23T01:43:40;5.07;;;2.75;;
52708;SDS011;38606;52.986;6.980;2022-07-23T01:46:06;3.78;;;2.60;;
52708;SDS011;38606;52.986;6.980;2022-07-23T01:48:32;4.47;;;3.00;;
52708;SDS011;38606;52.986;6.980;2022-07-23T01:50:57;6.28;;;2.67;;
52708;SDS011;38606;52.986;6.980;2022-07-23T01:53:23;5.30;;;2.90;;
52708;SDS011;38606;52.986;6.980;2022-07-23T01:55:49;5.25;;;3.10;;
52708;SDS011;38606;52.986;6.980;2022-07-23T01:58:15;4.40;;;2.97;;
52708;SDS011;38606;52.986;6.980;2022-07-23T02:00:40;4.22;;;3.08;;
52708;SDS011;38606;52.986;6.980;2022-07-23T02:03:06;5.38;;;2.85;;
52708;SDS011;38606;52.986;6.980;2022-07-23T02:05:32;6.55;;;2.75;;
52708;SDS011;38606;52.986;6.980;2022-07-23T02:07:58;7.93;;;3.22;;
52708;SDS011;38606;52.986;6.980;2022-07-23T02:10:25;9.63;;;3.10;;
52708;SDS011;38606;52.986;6.980;2022-07-23T02:12:51;6.57;;;3.05;;
52708;SDS011;38606;52.986;6.980;2022-07-23T02:15:17;7.55;;;2.97;;
52708;SDS011;38606;52.986;6.980;2022-07-23T02:17:43;7.45;;;3.40;;
52708;SDS011;38606;52.986;6.980;2022-07-23T02:20:09;5.07;;;3.53;;
52708;SDS011;38606;52.986;6.980;2022-07-23T02:22:36;6.40;;;3.63;;
52708;SDS011;38606;52.986;6.980;2022-07-23T02:25:02;8.85;;;3.58;;
52708;SDS011;38606;52.986;6.980;2022-07-23T02:27:29;8.18;;;3.58;;
52708;SDS011;38606;52.986;6.980;2022-07-23T02:29:55;6.15;;;3.33;;
52708;SDS011;38606;52.986;6.980;2022-07-23T02:32:20;5.53;;;3.92;;
52708;SDS011;38606;52.986;6.980;2022-07-23T02:34:46;7.15;;;3.88;;
52708;SDS011;38606;52.986;6.980;2022-07-23T02:37:13;8.65;;;3.80;;
52708;SDS011;38606;52.986;6.980;2022-07-23T02:39:39;7.97;;;3.60;;
52708;SDS011;38606;52.986;6.980;2022-07-23T02:42:05;7.68;;;3.85;;
52708;SDS011;38606;52.986;6.980;2022-07-23T02:44:31;6.30;;;3.80;;
52708;SDS011;38606;52.986;6.980;2022-07-23T02:46:57;4.97;;;3.45;;
52708;SDS011;38606;52.986;6.980;2022-07-23T02:49:22;6.05;;;3.63;;
52708;SDS011;38606;52.986;6.980;2022-07-23T02:51:48;6.07;;;3.70;;
52708;SDS011;38606;52.986;6.980;2022-07-23T02:54:14;9.05;;;3.60;;
52708;SDS011;38606;52.986;6.980;2022-07-23T02:56:39;5.35;;;3.67;;
52708;SDS011;38606;52.986;6.980;2022-07-23T02:59:05;4.43;;;3.88;;
52708;SDS011;38606;52.986;6.980;2022-07-23T03:01:31;7.53;;;3.83;;
52708;SDS011;38606;52.986;6.980;2022-07-23T03:03:57;5.60;;;3.85;;
52708;SDS011;38606;52.986;6.980;2022-07-23T03:06:23;8.18;;;4.05;;
52708;SDS011;38606;52.986;6.980;2022-07-23T03:08:48;6.53;;;4.10;;
52708;SDS011;38606;52.986;6.980;2022-07-23T03:11:14;6.05;;;4.15;;
52708;SDS011;38606;52.986;6.980;2022-07-23T03:13:40;8.80;;;5.15;;
52708;SDS011;38606;52.986;6.980;2022-07-23T03:16:06;8.35;;;4.15;;
52708;SDS011;38606;52.986;6.980;2022-07-23T03:18:32;6.80;;;4.78;;
52708;SDS011;38606;52.986;6.980;2022-07-23T03:20:58;8.90;;;4.65;;
52708;SDS011;38606;52.986;6.980;2022-07-23T03:23:25;8.65;;;5.00;;
52708;SDS011;38606;52.986;6.980;2022-07-23T03:25:51;5.75;;;4.65;;
52708;SDS011;38606;52.986;6.980;2022-07-23T03:28:17;5.93;;;4.90;;
52708;SDS011;38606;52.986;6.980;2022-07-23T03:30:44;9.23;;;4.57;;
52708;SDS011;38606;52.986;6.980;2022-07-23T03:33:17;7.53;;;4.25;;
52708;SDS011;38606;52.986;6.980;2022-07-23T03:35:43;8.60;;;4.72;;
52708;SDS011;38606;52.986;6.980;2022-07-23T03:38:10;6.60;;;4.53;;
52708;SDS011;38606;52.986;6.980;2022-07-23T03:40:35;8.25;;;4.18;;
52708;SDS011;38606;52.986;6.980;2022-07-23T03:43:01;6.80;;;4.50;;
52708;SDS011;38606;52.986;6.980;2022-07-23T03:45:27;8.07;;;4.45;;
52708;SDS011;38606;52.986;6.980;2022-07-23T03:47:53;8.38;;;4.55;;
52708;SDS011;38606;52.986;6.980;2022-07-23T03:50:18;6.10;;;4.55;;
52708;SDS011;38606;52.986;6.980;2022-07-23T03:52:44;6.88;;;4.20;;
52708;SDS011;38606;52.986;6.980;2022-07-23T03:55:10;5.25;;;3.95;;
52708;SDS011;38606;52.986;6.980;2022-07-23T03:57:36;8.90;;;4.28;;
52708;SDS011;38606;52.986;6.980;2022-07-23T04:00:03;7.20;;;4.13;;
52708;SDS011;38606;52.986;6.980;2022-07-23T04:02:30;9.45;;;4.43;;
52708;SDS011;38606;52.986;6.980;2022-07-23T04:04:56;7.47;;;4.57;;
52708;SDS011;38606;52.986;6.980;2022-07-23T04:07:22;9.13;;;4.78;;
52708;SDS011;38606;52.986;6.980;2022-07-23T04:09:48;11.40;;;4.68;;
52708;SDS011;38606;52.986;6.980;2022-07-23T04:12:13;7.45;;;4.38;;
52708;SDS011;38606;52.986;6.980;2022-07-23T04:14:39;7.45;;;4.47;;
52708;SDS011;38606;52.986;6.980;2022-07-23T04:17:06;9.88;;;4.90;;
52708;SDS011;38606;52.986;6.980;2022-07-23T04:19:31;6.72;;;4.43;;
52708;SDS011;38606;52.986;6.980;2022-07-23T04:21:57;6.53;;;4.57;;
52708;SDS011;38606;52.986;6.980;2022-07-23T04:24:23;9.23;;;4.65;;
52708;SDS011;38606;52.986;6.980;2022-07-23T04:26:48;7.78;;;4.90;;
52708;SDS011;38606;52.986;6.980;2022-07-23T04:29:14;9.02;;;4.38;;
52708;SDS011;38606;52.986;6.980;2022-07-23T04:31:40;7.10;;;4.80;;
52708;SDS011;38606;52.986;6.980;2022-07-23T04:34:05;6.65;;;4.55;;
52708;SDS011;38606;52.986;6.980;2022-07-23T04:36:31;10.20;;;4.53;;
52708;SDS011;38606;52.986;6.980;2022-07-23T04:38:57;7.38;;;5.13;;
52708;SDS011;38606;52.986;6.980;2022-07-23T04:41:23;6.93;;;5.00;;
52708;SDS011;38606;52.986;6.980;2022-07-23T04:43:48;7.07;;;4.88;;
52708;SDS011;38606;52.986;6.980;2022-07-23T04:46:14;8.73;;;4.80;;
52708;SDS011;38606;52.986;6.980;2022-07-23T04:48:40;8.25;;;5.25;;
52708;SDS011;38606;52.986;6.980;2022-07-23T04:51:07;11.48;;;5.63;;
52708;SDS011;38606;52.986;6.980;2022-07-23T04:53:33;7.53;;;5.10;;
52708;SDS011;38606;52.986;6.980;2022-07-23T04:55:59;8.57;;;5.28;;
52708;SDS011;38606;52.986;6.980;2022-07-23T04:58:24;9.18;;;4.88;;
52708;SDS011;38606;52.986;6.980;2022-07-23T05:00:50;7.20;;;4.85;;
52708;SDS011;38606;52.986;6.980;2022-07-23T05:03:16;6.18;;;4.55;;
52708;SDS011;38606;52.986;6.980;2022-07-23T05:05:42;7.32;;;4.72;;
52708;SDS011;38606;52.986;6.980;2022-07-23T05:08:08;8.43;;;5.00;;
52708;SDS011;38606;52.986;6.980;2022-07-23T05:10:33;7.00;;;4.93;;
52708;SDS011;38606;52.986;6.980;2022-07-23T05:12:59;7.85;;;4.80;;
52708;SDS011;38606;52.986;6.980;2022-07-23T05:15:25;8.00;;;4.50;;
52708;SDS011;38606;52.986;6.980;2022-07-23T05:17:51;8.43;;;4.60;;
52708;SDS011;38606;52.986;6.980;2022-07-23T05:20:16;8.02;;;5.03;;
52708;SDS011;38606;52.986;6.980;2022-07-23T05:22:42;6.53;;;4.40;;
52708;SDS011;38606;52.986;6.980;2022-07-23T05:25:08;8.82;;;3.65;;
52708;SDS011;38606;52.986;6.980;2022-07-23T05:27:34;7.55;;;4.50;;
52708;SDS011;38606;52.986;6.980;2022-07-23T05:29:59;9.10;;;4.30;;
52708;SDS011;38606;52.986;6.980;2022-07-23T05:32:25;7.45;;;4.07;;
52708;SDS011;38606;52.986;6.980;2022-07-23T05:34:51;9.00;;;4.63;;
52708;SDS011;38606;52.986;6.980;2022-07-23T05:37:17;8.25;;;4.05;;
52708;SDS011;38606;52.986;6.980;2022-07-23T05:39:43;5.60;;;3.88;;
52708;SDS011;38606;52.986;6.980;2022-07-23T05:42:08;7.72;;;4.05;;
52708;SDS011;38606;52.986;6.980;2022-07-23T05:44:34;8.45;;;3.88;;
52708;SDS011;38606;52.986;6.980;2022-07-23T05:47:00;4.88;;;3.85;;
52708;SDS011;38606;52.986;6.980;2022-07-23T05:49:26;10.27;;;4.05;;
52708;SDS011;38606;52.986;6.980;2022-07-23T05:51:52;5.03;;;2.97;;
52708;SDS011;38606;52.986;6.980;2022-07-23T05:54:17;6.47;;;3.05;;
52708;SDS011;38606;52.986;6.980;2022-07-23T05:56:43;7.05;;;3.20;;
52708;SDS011;38606;52.986;6.980;2022-07-23T05:59:09;8.88;;;3.15;;
52708;SDS011;38606;52.986;6.980;2022-07-23T06:01:37;8.40;;;3.10;;
52708;SDS011;38606;52.986;6.980;2022-07-23T06:04:02;5.32;;;2.80;;
52708;SDS011;38606;52.986;6.980;2022-07-23T06:06:28;6.45;;;2.92;;
52708;SDS011;38606;52.986;6.980;2022-07-23T06:08:54;6.28;;;2.60;;
52708;SDS011;38606;52.986;6.980;2022-07-23T06:11:19;6.72;;;2.10;;
52708;SDS011;38606;52.986;6.980;2022-07-23T06:13:45;5.40;;;2.50;;
52708;SDS011;38606;52.986;6.980;2022-07-23T06:16:11;4.50;;;2.30;;
52708;SDS011;38606;52.986;6.980;2022-07-23T06:18:36;3.67;;;2.13;;
52708;SDS011;38606;52.986;6.980;2022-07-23T06:21:02;3.25;;;2.10;;
52708;SDS011;38606;52.986;6.980;2022-07-23T06:23:28;6.25;;;2.10;;
52708;SDS011;38606;52.986;6.980;2022-07-23T06:25:53;2.78;;;2.05;;
52708;SDS011;38606;52.986;6.980;2022-07-23T06:28:19;3.38;;;1.80;;
52708;SDS011;38606;52.986;6.980;2022-07-23T06:30:45;6.32;;;1.83;;
52708;SDS011;38606;52.986;6.980;2022-07-23T06:33:10;5.32;;;1.90;;
52708;SDS011;38606;52.986;6.980;2022-07-23T06:35:37;4.22;;;1.80;;
52708;SDS011;38606;52.986;6.980;2022-07-23T06:38:03;3.58;;;1.70;;
52708;SDS011;38606;52.986;6.980;2022-07-23T06:40:28;2.72;;;1.80;;
52708;SDS011;38606;52.986;6.980;2022-07-23T06:42:54;8.90;;;1.85;;
52708;SDS011;38606;52.986;6.980;2022-07-23T06:45:20;3.50;;;1.70;;
52708;SDS011;38606;52.986;6.980;2022-07-23T06:47:45;4.85;;;1.58;;
52708;SDS011;38606;52.986;6.980;2022-07-23T06:50:11;5.05;;;1.65;;
52708;SDS011;38606;52.986;6.980;2022-07-23T06:52:37;4.78;;;1.55;;
52708;SDS011;38606;52.986;6.980;2022-07-23T06:55:03;3.13;;;1.42;;
52708;SDS011;38606;52.986;6.980;2022-07-23T06:57:29;4.65;;;1.75;;
52708;SDS011;38606;52.986;6.980;2022-07-23T06:59:54;4.75;;;1.45;;
52708;SDS011;38606;52.986;6.980;2022-07-23T07:02:20;3.67;;;1.65;;
52708;SDS011;38606;52.986;6.980;2022-07-23T07:04:45;4.40;;;1.48;;
52708;SDS011;38606;52.986;6.980;2022-07-23T07:07:11;3.38;;;1.70;;
52708;SDS011;38606;52.986;6.980;2022-07-23T07:09:37;4.00;;;1.50;;
52708;SDS011;38606;52.986;6.980;2022-07-23T07:12:03;6.60;;;1.30;;
52708;SDS011;38606;52.986;6.980;2022-07-23T07:14:29;2.97;;;1.10;;
52708;SDS011;38606;52.986;6.980;2022-07-23T07:16:55;4.43;;;1.00;;
52708;SDS011;38606;52.986;6.980;2022-07-23T07:19:21;3.13;;;0.93;;
52708;SDS011;38606;52.986;6.980;2022-07-23T07:21:47;5.50;;;1.10;;
52708;SDS011;38606;52.986;6.980;2022-07-23T07:24:12;5.65;;;1.17;;
52708;SDS011;38606;52.986;6.980;2022-07-23T07:26:38;2.17;;;0.93;;
52708;SDS011;38606;52.986;6.980;2022-07-23T07:29:04;2.00;;;0.85;;
52708;SDS011;38606;52.986;6.980;2022-07-23T07:31:30;2.67;;;0.80;;
52708;SDS011;38606;52.986;6.980;2022-07-23T07:33:56;2.63;;;0.70;;
52708;SDS011;38606;52.986;6.980;2022-07-23T07:36:22;2.05;;;0.70;;
52708;SDS011;38606;52.986;6.980;2022-07-23T07:38:48;1.35;;;0.70;;
52708;SDS011;38606;52.986;6.980;2022-07-23T07:41:14;2.88;;;0.60;;
52708;SDS011;38606;52.986;6.980;2022-07-23T07:43:40;4.90;;;0.85;;
52708;SDS011;38606;52.986;6.980;2022-07-23T07:46:06;1.70;;;0.60;;
52708;SDS011;38606;52.986;6.980;2022-07-23T07:48:35;2.35;;;0.75;;
52708;SDS011;38606;52.986;6.980;2022-07-23T07:51:02;1.08;;;0.50;;
52708;SDS011;38606;52.986;6.980;2022-07-23T07:53:29;2.60;;;0.60;;
52708;SDS011;38606;52.986;6.980;2022-07-23T07:55:54;3.58;;;0.68;;
52708;SDS011;38606;52.986;6.980;2022-07-23T07:58:20;0.85;;;0.50;;
52708;SDS011;38606;52.986;6.980;2022-07-23T08:00:46;2.67;;;0.50;;
52708;SDS011;38606;52.986;6.980;2022-07-23T08:03:14;1.52;;;0.52;;
52708;SDS011;38606;52.986;6.980;2022-07-23T08:05:40;0.77;;;0.45;;
52708;SDS011;38606;52.986;6.980;2022-07-23T08:08:06;1.48;;;0.38;;
52708;SDS011;38606;52.986;6.980;2022-07-23T08:10:31;1.35;;;0.50;;
52708;SDS011;38606;52.986;6.980;2022-07-23T08:12:58;2.20;;;0.60;;
52708;SDS011;38606;52.986;6.980;2022-07-23T08:15:26;2.50;;;0.85;;
52708;SDS011;38606;52.986;6.980;2022-07-23T08:17:53;1.13;;;0.65;;
52708;SDS011;38606;52.986;6.980;2022-07-23T08:20:20;3.63;;;0.85;;
52708;SDS011;38606;52.986;6.980;2022-07-23T08:22:48;1.80;;;0.50;;
52708;SDS011;38606;52.986;6.980;2022-07-23T08:27:54;3.13;;;0.60;;
52708;SDS011;38606;52.986;6.980;2022-07-23T08:30:20;2.30;;;0.40;;
52708;SDS011;38606;52.986;6.980;2022-07-23T08:32:47;1.17;;;0.50;;
52708;SDS011;38606;52.986;6.980;2022-07-23T08:35:17;3.58;;;0.60;;
52708;SDS011;38606;52.986;6.980;2022-07-23T08:37:47;1.30;;;0.50;;
52708;SDS011;38606;52.986;6.980;2022-07-23T08:40:12;1.40;;;0.52;;
52708;SDS011;38606;52.986;6.980;2022-07-23T08:42:38;1.08;;;0.40;;
52708;SDS011;38606;52.986;6.980;2022-07-23T08:45:04;0.75;;;0.47;;
52708;SDS011;38606;52.986;6.980;2022-07-23T08:47:33;0.98;;;0.50;;
52708;SDS011;38606;52.986;6.980;2022-07-23T08:50:02;1.00;;;0.40;;
52708;SDS011;38606;52.986;6.980;2022-07-23T08:52:27;0.80;;;0.40;;
52708;SDS011;38606;52.986;6.980;2022-07-23T08:54:55;2.30;;;0.60;;
52708;SDS011;38606;52.986;6.980;2022-07-23T08:57:22;1.02;;;0.50;;
52708;SDS011;38606;52.986;6.980;2022-07-23T08:59:48;2.50;;;0.57;;
52708;SDS011;38606;52.986;6.980;2022-07-23T09:02:13;0.30;;;0.30;;
52708;SDS011;38606;52.986;6.980;2022-07-23T09:04:39;1.60;;;0.40;;
52708;SDS011;38606;52.986;6.980;2022-07-23T09:07:05;1.83;;;0.60;;
52708;SDS011;38606;52.986;6.980;2022-07-23T09:09:30;2.00;;;0.55;;
52708;SDS011;38606;52.986;6.980;2022-07-23T09:12:06;1.73;;;0.60;;
52708;SDS011;38606;52.986;6.980;2022-07-23T09:14:41;1.38;;;0.40;;
52708;SDS011;38606;52.986;6.980;2022-07-23T09:17:12;0.57;;;0.40;;
52708;SDS011;38606;52.986;6.980;2022-07-23T09:19:39;0.55;;;0.32;;
52708;SDS011;38606;52.986;6.980;2022-07-23T09:22:16;0.85;;;0.40;;
52708;SDS011;38606;52.986;6.980;2022-07-23T09:27:57;2.25;;;0.40;;
52708;SDS011;38606;52.986;6.980;2022-07-23T09:30:28;2.10;;;0.60;;
52708;SDS011;38606;52.986;6.980;2022-07-23T09:33:06;0.93;;;0.40;;
52708;SDS011;38606;52.986;6.980;2022-07-23T09:35:48;0.60;;;0.40;;
52708;SDS011;38606;52.986;6.980;2022-07-23T09:38:18;2.78;;;0.80;;
52708;SDS011;38606;52.986;6.980;2022-07-23T09:40:46;1.33;;;0.40;;
52708;SDS011;38606;52.986;6.980;2022-07-23T09:43:29;0.50;;;0.38;;
52708;SDS011;38606;52.986;6.980;2022-07-23T09:46:06;1.17;;;0.32;;
52708;SDS011;38606;52.986;6.980;2022-07-23T09:48:45;1.90;;;0.50;;
52708;SDS011;38606;52.986;6.980;2022-07-23T09:51:11;1.20;;;0.40;;
52708;SDS011;38606;52.986;6.980;2022-07-23T09:53:39;0.38;;;0.38;;
52708;SDS011;38606;52.986;6.980;2022-07-23T09:56:05;0.30;;;0.30;;
52708;SDS011;38606;52.986;6.980;2022-07-23T09:58:32;4.03;;;0.47;;
52708;SDS011;38606;52.986;6.980;2022-07-23T10:00:59;1.25;;;0.40;;
52708;SDS011;38606;52.986;6.980;2022-07-23T10:03:25;0.93;;;0.40;;
52708;SDS011;38606;52.986;6.980;2022-07-23T10:05:51;0.85;;;0.40;;
52708;SDS011;38606;52.986;6.980;2022-07-23T10:08:18;2.25;;;0.50;;
52708;SDS011;38606;52.986;6.980;2022-07-23T10:10:46;2.35;;;0.60;;
52708;SDS011;38606;52.986;6.980;2022-07-23T10:13:13;1.80;;;0.57;;
52708;SDS011;38606;52.986;6.980;2022-07-23T10:15:42;0.93;;;0.30;;
52708;SDS011;38606;52.986;6.980;2022-07-23T10:18:09;1.77;;;0.50;;
52708;SDS011;38606;52.986;6.980;2022-07-23T10:20:37;0.57;;;0.40;;
52708;SDS011;38606;52.986;6.980;2022-07-23T10:26:16;3.15;;;0.40;;
52708;SDS011;38606;52.986;6.980;2022-07-23T10:34:29;3.40;;;0.68;;
52708;SDS011;38606;52.986;6.980;2022-07-23T10:40:08;0.63;;;0.40;;
52708;SDS011;38606;52.986;6.980;2022-07-23T10:42:45;1.00;;;0.47;;
52708;SDS011;38606;52.986;6.980;2022-07-23T10:45:21;0.57;;;0.52;;
52708;SDS011;38606;52.986;6.980;2022-07-23T10:48:17;0.88;;;0.50;;
52708;SDS011;38606;52.986;6.980;2022-07-23T10:56:16;2.47;;;0.73;;
52708;SDS011;38606;52.986;6.980;2022-07-23T10:59:05;4.20;;;0.60;;
52708;SDS011;38606;52.986;6.980;2022-07-23T11:04:01;3.83;;;0.80;;
52708;SDS011;38606;52.986;6.980;2022-07-23T11:09:38;2.15;;;0.60;;
52708;SDS011;38606;52.986;6.980;2022-07-23T11:20:16;1.08;;;0.60;;
52708;SDS011;38606;52.986;6.980;2022-07-23T11:25:51;3.15;;;0.73;;
52708;SDS011;38606;52.986;6.980;2022-07-23T11:28:34;1.30;;;0.63;;
52708;SDS011;38606;52.986;6.980;2022-07-23T11:30:52;2.03;;;0.60;;
52708;SDS011;38606;52.986;6.980;2022-07-23T11:33:19;1.23;;;0.60;;
52708;SDS011;38606;52.986;6.980;2022-07-23T11:35:47;0.98;;;0.60;;
52708;SDS011;38606;52.986;6.980;2022-07-23T11:38:16;1.63;;;0.45;;
52708;SDS011;38606;52.986;6.980;2022-07-23T11:40:44;3.30;;;0.60;;
52708;SDS011;38606;52.986;6.980;2022-07-23T11:43:12;2.38;;;0.80;;
52708;SDS011;38606;52.986;6.980;2022-07-23T11:45:43;3.55;;;0.70;;
52708;SDS011;38606;52.986;6.980;2022-07-23T11:48:23;3.53;;;0.60;;
52708;SDS011;38606;52.986;6.980;2022-07-23T11:50:51;2.00;;;0.60;;
52708;SDS011;38606;52.986;6.980;2022-07-23T11:53:31;3.30;;;1.08;;
52708;SDS011;38606;52.986;6.980;2022-07-23T11:56:05;2.33;;;0.70;;
52708;SDS011;38606;52.986;6.980;2022-07-23T11:58:35;0.70;;;0.70;;
52708;SDS011;38606;52.986;6.980;2022-07-23T12:01:01;3.88;;;1.17;;
52708;SDS011;38606;52.986;6.980;2022-07-23T12:03:28;2.38;;;0.98;;
52708;SDS011;38606;52.986;6.980;2022-07-23T12:05:57;2.78;;;0.73;;
52708;SDS011;38606;52.986;6.980;2022-07-23T12:08:23;1.48;;;0.63;;
52708;SDS011;38606;52.986;6.980;2022-07-23T12:10:49;2.45;;;0.90;;
52708;SDS011;38606;52.986;6.980;2022-07-23T12:13:16;1.48;;;0.65;;
52708;SDS011;38606;52.986;6.980;2022-07-23T12:15:50;0.95;;;0.75;;
52708;SDS011;38606;52.986;6.980;2022-07-23T12:18:18;1.20;;;0.60;;
52708;SDS011;38606;52.986;6.980;2022-07-23T12:20:46;2.78;;;0.80;;
52708;SDS011;38606;52.986;6.980;2022-07-23T12:23:15;1.90;;;1.17;;
52708;SDS011;38606;52.986;6.980;2022-07-23T12:25:43;1.27;;;0.70;;
52708;SDS011;38606;52.986;6.980;2022-07-23T12:28:15;1.90;;;0.90;;
52708;SDS011;38606;52.986;6.980;2022-07-23T12:30:49;2.95;;;0.90;;
52708;SDS011;38606;52.986;6.980;2022-07-23T12:35:49;1.33;;;0.93;;
52708;SDS011;38606;52.986;6.980;2022-07-23T12:38:18;1.70;;;0.93;;
52708;SDS011;38606;52.986;6.980;2022-07-23T12:48:19;4.05;;;1.10;;
52708;SDS011;38606;52.986;6.980;2022-07-23T12:53:21;1.63;;;1.08;;
52708;SDS011;38606;52.986;6.980;2022-07-23T12:55:49;1.95;;;0.90;;
52708;SDS011;38606;52.986;6.980;2022-07-23T13:00:54;1.75;;;1.05;;
52708;SDS011;38606;52.986;6.980;2022-07-23T13:03:21;3.92;;;1.50;;
52708;SDS011;38606;52.986;6.980;2022-07-23T13:05:48;1.85;;;1.25;;
52708;SDS011;38606;52.986;6.980;2022-07-23T13:08:14;3.67;;;1.08;;
52708;SDS011;38606;52.986;6.980;2022-07-23T13:10:40;1.17;;;0.93;;
52708;SDS011;38606;52.986;6.980;2022-07-23T13:13:12;1.83;;;1.05;;
52708;SDS011;38606;52.986;6.980;2022-07-23T13:15:38;1.60;;;1.20;;
52708;SDS011;38606;52.986;6.980;2022-07-23T13:18:03;4.20;;;1.08;;
52708;SDS011;38606;52.986;6.980;2022-07-23T13:20:29;3.60;;;1.02;;
52708;SDS011;38606;52.986;6.980;2022-07-23T13:22:57;1.55;;;1.00;;
52708;SDS011;38606;52.986;6.980;2022-07-23T13:25:23;3.60;;;1.10;;
52708;SDS011;38606;52.986;6.980;2022-07-23T13:27:49;1.65;;;0.80;;
52708;SDS011;38606;52.986;6.980;2022-07-23T13:30:14;2.35;;;0.90;;
52708;SDS011;38606;52.986;6.980;2022-07-23T13:32:40;1.80;;;0.75;;
52708;SDS011;38606;52.986;6.980;2022-07-23T13:35:07;5.45;;;1.20;;
52708;SDS011;38606;52.986;6.980;2022-07-23T13:37:32;2.72;;;1.00;;
52708;SDS011;38606;52.986;6.980;2022-07-23T13:39:58;2.47;;;1.25;;
52708;SDS011;38606;52.986;6.980;2022-07-23T13:42:24;2.88;;;1.13;;
52708;SDS011;38606;52.986;6.980;2022-07-23T13:44:49;1.67;;;1.00;;
52708;SDS011;38606;52.986;6.980;2022-07-23T13:47:15;2.78;;;1.05;;
52708;SDS011;38606;52.986;6.980;2022-07-23T13:49:41;1.45;;;1.10;;
52708;SDS011;38606;52.986;6.980;2022-07-23T13:52:06;3.45;;;0.88;;
52708;SDS011;38606;52.986;6.980;2022-07-23T13:54:32;2.38;;;1.20;;
52708;SDS011;38606;52.986;6.980;2022-07-23T13:56:58;1.67;;;0.98;;
52708;SDS011;38606;52.986;6.980;2022-07-23T13:59:23;1.35;;;0.80;;
52708;SDS011;38606;52.986;6.980;2022-07-23T14:01:50;3.53;;;1.00;;
52708;SDS011;38606;52.986;6.980;2022-07-23T14:04:16;1.55;;;0.98;;
52708;SDS011;38606;52.986;6.980;2022-07-23T14:06:42;2.60;;;1.00;;
52708;SDS011;38606;52.986;6.980;2022-07-23T14:09:08;3.13;;;1.20;;
52708;SDS011;38606;52.986;6.980;2022-07-23T14:11:33;3.33;;;1.02;;
52708;SDS011;38606;52.986;6.980;2022-07-23T14:13:59;1.23;;;0.90;;
52708;SDS011;38606;52.986;6.980;2022-07-23T14:16:26;2.75;;;0.90;;
52708;SDS011;38606;52.986;6.980;2022-07-23T14:18:51;1.92;;;1.00;;
52708;SDS011;38606;52.986;6.980;2022-07-23T14:21:17;2.15;;;1.13;;
52708;SDS011;38606;52.986;6.980;2022-07-23T14:23:43;3.45;;;1.05;;
52708;SDS011;38606;52.986;6.980;2022-07-23T14:26:09;1.88;;;0.90;;
52708;SDS011;38606;52.986;6.980;2022-07-23T14:28:34;1.30;;;0.80;;
52708;SDS011;38606;52.986;6.980;2022-07-23T14:31:00;1.05;;;0.80;;
52708;SDS011;38606;52.986;6.980;2022-07-23T14:33:26;2.90;;;0.90;;
52708;SDS011;38606;52.986;6.980;2022-07-23T14:35:52;1.17;;;0.70;;
52708;SDS011;38606;52.986;6.980;2022-07-23T14:38:17;3.13;;;1.00;;
52708;SDS011;38606;52.986;6.980;2022-07-23T14:40:43;2.35;;;0.80;;
52708;SDS011;38606;52.986;6.980;2022-07-23T14:43:09;1.20;;;0.90;;
52708;SDS011;38606;52.986;6.980;2022-07-23T14:45:34;1.63;;;0.70;;
52708;SDS011;38606;52.986;6.980;2022-07-23T14:48:00;2.53;;;1.10;;
52708;SDS011;38606;52.986;6.980;2022-07-23T14:50:28;2.78;;;0.70;;
52708;SDS011;38606;52.986;6.980;2022-07-23T14:52:54;1.30;;;0.90;;
52708;SDS011;38606;52.986;6.980;2022-07-23T14:55:20;3.10;;;0.88;;
52708;SDS011;38606;52.986;6.980;2022-07-23T14:57:46;2.10;;;0.70;;
52708;SDS011;38606;52.986;6.980;2022-07-23T15:00:11;2.38;;;0.85;;
52708;SDS011;38606;52.986;6.980;2022-07-23T15:02:38;2.67;;;0.80;;
52708;SDS011;38606;52.986;6.980;2022-07-23T15:05:03;1.77;;;0.85;;
52708;SDS011;38606;52.986;6.980;2022-07-23T15:07:29;1.27;;;0.85;;
52708;SDS011;38606;52.986;6.980;2022-07-23T15:09:56;1.52;;;0.88;;
52708;SDS011;38606;52.986;6.980;2022-07-23T15:12:23;1.60;;;1.00;;
52708;SDS011;38606;52.986;6.980;2022-07-23T15:14:49;1.92;;;0.70;;
52708;SDS011;38606;52.986;6.980;2022-07-23T15:17:15;2.03;;;1.20;;
52708;SDS011;38606;52.986;6.980;2022-07-23T15:19:41;2.20;;;1.00;;
52708;SDS011;38606;52.986;6.980;2022-07-23T15:22:07;5.68;;;2.05;;
52708;SDS011;38606;52.986;6.980;2022-07-23T15:24:33;2.83;;;1.55;;
52708;SDS011;38606;52.986;6.980;2022-07-23T15:26:58;2.67;;;1.50;;
52708;SDS011;38606;52.986;6.980;2022-07-23T15:29:24;3.90;;;1.42;;
52708;SDS011;38606;52.986;6.980;2022-07-23T15:31:50;4.20;;;1.67;;
52708;SDS011;38606;52.986;6.980;2022-07-23T15:34:16;2.60;;;0.90;;
52708;SDS011;38606;52.986;6.980;2022-07-23T15:36:42;8.73;;;3.63;;
52708;SDS011;38606;52.986;6.980;2022-07-23T15:39:07;2.25;;;1.27;;
52708;SDS011;38606;52.986;6.980;2022-07-23T15:41:33;1.52;;;0.93;;
52708;SDS011;38606;52.986;6.980;2022-07-23T15:43:59;3.47;;;1.13;;